sensor_id;sensor_type;location;lat;lon;timestamp;P1;durP1;ratioP1;P2;durP2;ratioP2
27333;SDS011;14817;57.104;-2.094;2022-12-08T00:01:19;6.85;;;1.90;;
27333;SDS011;14817;57.104;-2.094;2022-12-08T00:03:50;7.47;;;1.10;;
27333;SDS011;14817;57.104;-2.094;2022-12-08T00:12:11;4.57;;;1.25;;
27333;SDS011;14817;57.104;-2.094;2022-12-08T00:14:43;3.85;;;0.73;;
27333;SDS011;14817;57.104;-2.094;2022-12-08T00:17:12;4.88;;;1.52;;
27333;SDS011;14817;57.104;-2.094;2022-12-08T00:19:40;6.68;;;0.90;;
27333;SDS011;14817;57.104;-2.094;2022-12-08T00:22:08;9.07;;;1.42;;
27333;SDS011;14817;57.104;-2.094;2022-12-08T00:24:36;6.97;;;0.90;;
27333;SDS011;14817;57.104;-2.094;2022-12-08T00:27:08;7.88;;;1.15;;
27333;SDS011;14817;57.104;-2.094;2022-12-08T00:29:39;7.03;;;0.70;;
27333;SDS011;14817;57.104;-2.094;2022-12-08T00:32:06;6.35;;;1.08;;
27333;SDS011;14817;57.104;-2.094;2022-12-08T00:34:33;13.40;;;2.25;;
27333;SDS011;14817;57.104;-2.094;2022-12-08T00:37:00;4.63;;;1.35;;
27333;SDS011;14817;57.104;-2.094;2022-12-08T00:39:27;5.80;;;1.05;;
27333;SDS011;14817;57.104;-2.094;2022-12-08T00:41:54;7.20;;;1.40;;
27333;SDS011;14817;57.104;-2.094;2022-12-08T00:44:40;4.05;;;0.93;;
27333;SDS011;14817;57.104;-2.094;2022-12-08T00:47:09;6.97;;;1.10;;
27333;SDS011;14817;57.104;-2.094;2022-12-08T00:49:37;5.28;;;0.82;;
27333;SDS011;14817;57.104;-2.094;2022-12-08T00:52:03;2.22;;;0.73;;
27333;SDS011;14817;57.104;-2.094;2022-12-08T00:54:31;5.85;;;1.20;;
27333;SDS011;14817;57.104;-2.094;2022-12-08T00:56:57;2.25;;;0.60;;
27333;SDS011;14817;57.104;-2.094;2022-12-08T00:59:24;5.25;;;1.00;;
27333;SDS011;14817;57.104;-2.094;2022-12-08T01:01:51;7.70;;;1.00;;
27333;SDS011;14817;57.104;-2.094;2022-12-08T01:04:18;8.88;;;1.27;;
27333;SDS011;14817;57.104;-2.094;2022-12-08T01:06:47;6.65;;;1.08;;
27333;SDS011;14817;57.104;-2.094;2022-12-08T01:09:14;5.10;;;0.70;;
27333;SDS011;14817;57.104;-2.094;2022-12-08T01:11:42;6.25;;;0.73;;
27333;SDS011;14817;57.104;-2.094;2022-12-08T01:14:10;10.50;;;0.93;;
27333;SDS011;14817;57.104;-2.094;2022-12-08T01:16:37;4.25;;;0.80;;
27333;SDS011;14817;57.104;-2.094;2022-12-08T01:19:06;3.10;;;0.68;;
27333;SDS011;14817;57.104;-2.094;2022-12-08T01:21:33;6.22;;;0.63;;
27333;SDS011;14817;57.104;-2.094;2022-12-08T01:24:00;5.03;;;0.73;;
27333;SDS011;14817;57.104;-2.094;2022-12-08T01:26:28;10.13;;;1.40;;
27333;SDS011;14817;57.104;-2.094;2022-12-08T01:28:55;6.85;;;0.98;;
27333;SDS011;14817;57.104;-2.094;2022-12-08T01:31:22;7.45;;;1.25;;
27333;SDS011;14817;57.104;-2.094;2022-12-08T01:33:49;4.15;;;0.80;;
27333;SDS011;14817;57.104;-2.094;2022-12-08T01:36:20;8.57;;;1.33;;
27333;SDS011;14817;57.104;-2.094;2022-12-08T01:38:58;3.78;;;0.80;;
27333;SDS011;14817;57.104;-2.094;2022-12-08T01:41:27;5.90;;;1.15;;
27333;SDS011;14817;57.104;-2.094;2022-12-08T01:46:35;8.23;;;1.00;;
27333;SDS011;14817;57.104;-2.094;2022-12-08T01:51:47;5.43;;;0.80;;
27333;SDS011;14817;57.104;-2.094;2022-12-08T01:54:26;4.43;;;0.80;;
27333;SDS011;14817;57.104;-2.094;2022-12-08T01:57:00;7.63;;;1.45;;
27333;SDS011;14817;57.104;-2.094;2022-12-08T01:59:32;5.10;;;1.10;;
27333;SDS011;14817;57.104;-2.094;2022-12-08T02:02:04;5.22;;;0.85;;
27333;SDS011;14817;57.104;-2.094;2022-12-08T02:04:31;3.40;;;0.52;;
27333;SDS011;14817;57.104;-2.094;2022-12-08T02:06:58;2.92;;;0.45;;
27333;SDS011;14817;57.104;-2.094;2022-12-08T02:09:32;6.10;;;0.63;;
27333;SDS011;14817;57.104;-2.094;2022-12-08T02:12:01;5.95;;;0.57;;
27333;SDS011;14817;57.104;-2.094;2022-12-08T02:14:28;6.07;;;1.10;;
27333;SDS011;14817;57.104;-2.094;2022-12-08T02:22:14;10.68;;;1.73;;
27333;SDS011;14817;57.104;-2.094;2022-12-08T02:36:21;6.45;;;1.05;;
27333;SDS011;14817;57.104;-2.094;2022-12-08T02:41:55;4.90;;;0.65;;
27333;SDS011;14817;57.104;-2.094;2022-12-08T02:44:32;4.07;;;1.15;;
27333;SDS011;14817;57.104;-2.094;2022-12-08T02:47:09;3.47;;;0.55;;
27333;SDS011;14817;57.104;-2.094;2022-12-08T02:49:39;4.18;;;0.88;;
27333;SDS011;14817;57.104;-2.094;2022-12-08T02:54:40;4.38;;;0.75;;
27333;SDS011;14817;57.104;-2.094;2022-12-08T02:59:54;4.88;;;1.00;;
27333;SDS011;14817;57.104;-2.094;2022-12-08T03:18:27;6.55;;;0.60;;
27333;SDS011;14817;57.104;-2.094;2022-12-08T03:20:59;4.65;;;0.60;;
27333;SDS011;14817;57.104;-2.094;2022-12-08T03:23:27;6.93;;;1.10;;
27333;SDS011;14817;57.104;-2.094;2022-12-08T03:25:57;8.40;;;0.60;;
27333;SDS011;14817;57.104;-2.094;2022-12-08T03:28:38;7.40;;;1.23;;
27333;SDS011;14817;57.104;-2.094;2022-12-08T03:31:06;10.88;;;1.08;;
27333;SDS011;14817;57.104;-2.094;2022-12-08T03:33:39;4.13;;;0.70;;
27333;SDS011;14817;57.104;-2.094;2022-12-08T03:36:08;7.75;;;1.27;;
27333;SDS011;14817;57.104;-2.094;2022-12-08T03:38:38;8.00;;;1.10;;
27333;SDS011;14817;57.104;-2.094;2022-12-08T03:43:46;6.32;;;0.80;;
27333;SDS011;14817;57.104;-2.094;2022-12-08T03:46:14;3.67;;;0.70;;
27333;SDS011;14817;57.104;-2.094;2022-12-08T03:48:42;6.25;;;0.50;;
27333;SDS011;14817;57.104;-2.094;2022-12-08T03:51:09;5.95;;;0.88;;
27333;SDS011;14817;57.104;-2.094;2022-12-08T03:53:36;2.08;;;0.68;;
27333;SDS011;14817;57.104;-2.094;2022-12-08T03:56:04;6.72;;;1.10;;
27333;SDS011;14817;57.104;-2.094;2022-12-08T03:58:39;7.45;;;0.70;;
27333;SDS011;14817;57.104;-2.094;2022-12-08T04:01:06;5.00;;;0.68;;
27333;SDS011;14817;57.104;-2.094;2022-12-08T04:03:32;8.57;;;0.98;;
27333;SDS011;14817;57.104;-2.094;2022-12-08T04:05:59;3.45;;;0.40;;
27333;SDS011;14817;57.104;-2.094;2022-12-08T04:08:26;7.90;;;2.22;;
27333;SDS011;14817;57.104;-2.094;2022-12-08T04:10:53;13.90;;;2.55;;
27333;SDS011;14817;57.104;-2.094;2022-12-08T04:13:20;9.77;;;1.17;;
27333;SDS011;14817;57.104;-2.094;2022-12-08T04:15:47;8.60;;;1.05;;
27333;SDS011;14817;57.104;-2.094;2022-12-08T04:18:14;5.25;;;1.52;;
27333;SDS011;14817;57.104;-2.094;2022-12-08T04:20:42;5.28;;;0.98;;
27333;SDS011;14817;57.104;-2.094;2022-12-08T04:23:10;12.00;;;1.60;;
27333;SDS011;14817;57.104;-2.094;2022-12-08T04:25:38;8.70;;;2.17;;
27333;SDS011;14817;57.104;-2.094;2022-12-08T04:28:05;5.45;;;0.75;;
27333;SDS011;14817;57.104;-2.094;2022-12-08T04:30:32;8.27;;;0.52;;
27333;SDS011;14817;57.104;-2.094;2022-12-08T04:32:59;3.65;;;0.60;;
27333;SDS011;14817;57.104;-2.094;2022-12-08T04:35:26;4.45;;;1.05;;
27333;SDS011;14817;57.104;-2.094;2022-12-08T04:37:53;11.75;;;1.20;;
27333;SDS011;14817;57.104;-2.094;2022-12-08T04:40:20;6.95;;;1.42;;
27333;SDS011;14817;57.104;-2.094;2022-12-08T04:42:47;8.75;;;0.95;;
27333;SDS011;14817;57.104;-2.094;2022-12-08T04:45:14;6.13;;;0.77;;
27333;SDS011;14817;57.104;-2.094;2022-12-08T04:47:43;7.15;;;0.70;;
27333;SDS011;14817;57.104;-2.094;2022-12-08T04:50:10;6.43;;;1.33;;
27333;SDS011;14817;57.104;-2.094;2022-12-08T04:52:38;9.48;;;1.25;;
27333;SDS011;14817;57.104;-2.094;2022-12-08T04:55:05;6.28;;;1.15;;
27333;SDS011;14817;57.104;-2.094;2022-12-08T04:57:32;5.38;;;0.90;;
27333;SDS011;14817;57.104;-2.094;2022-12-08T04:59:59;7.80;;;1.13;;
27333;SDS011;14817;57.104;-2.094;2022-12-08T05:02:26;6.60;;;0.88;;
27333;SDS011;14817;57.104;-2.094;2022-12-08T05:04:53;7.43;;;2.00;;
27333;SDS011;14817;57.104;-2.094;2022-12-08T05:07:20;7.22;;;1.27;;
27333;SDS011;14817;57.104;-2.094;2022-12-08T05:09:47;3.47;;;0.70;;
27333;SDS011;14817;57.104;-2.094;2022-12-08T05:12:14;4.93;;;1.25;;
27333;SDS011;14817;57.104;-2.094;2022-12-08T05:14:40;7.28;;;0.93;;
27333;SDS011;14817;57.104;-2.094;2022-12-08T05:17:07;3.38;;;0.90;;
27333;SDS011;14817;57.104;-2.094;2022-12-08T05:19:35;2.58;;;0.85;;
27333;SDS011;14817;57.104;-2.094;2022-12-08T05:22:02;6.68;;;0.80;;
27333;SDS011;14817;57.104;-2.094;2022-12-08T05:24:28;4.05;;;0.50;;
27333;SDS011;14817;57.104;-2.094;2022-12-08T05:26:55;2.17;;;0.57;;
27333;SDS011;14817;57.104;-2.094;2022-12-08T05:29:22;6.80;;;0.40;;
27333;SDS011;14817;57.104;-2.094;2022-12-08T05:31:49;3.25;;;0.38;;
27333;SDS011;14817;57.104;-2.094;2022-12-08T05:34:16;5.20;;;0.40;;
27333;SDS011;14817;57.104;-2.094;2022-12-08T05:36:43;3.75;;;0.40;;
27333;SDS011;14817;57.104;-2.094;2022-12-08T05:39:11;3.10;;;0.30;;
27333;SDS011;14817;57.104;-2.094;2022-12-08T05:41:38;0.98;;;0.30;;
27333;SDS011;14817;57.104;-2.094;2022-12-08T05:44:06;0.88;;;0.20;;
27333;SDS011;14817;57.104;-2.094;2022-12-08T05:46:33;6.55;;;0.60;;
27333;SDS011;14817;57.104;-2.094;2022-12-08T05:49:01;2.47;;;0.43;;
27333;SDS011;14817;57.104;-2.094;2022-12-08T05:51:28;1.10;;;0.25;;
27333;SDS011;14817;57.104;-2.094;2022-12-08T05:53:55;1.60;;;0.40;;
27333;SDS011;14817;57.104;-2.094;2022-12-08T05:56:23;1.23;;;0.40;;
27333;SDS011;14817;57.104;-2.094;2022-12-08T05:58:50;1.90;;;0.45;;
27333;SDS011;14817;57.104;-2.094;2022-12-08T06:01:17;3.95;;;0.68;;
27333;SDS011;14817;57.104;-2.094;2022-12-08T06:09:04;1.33;;;0.30;;
27333;SDS011;14817;57.104;-2.094;2022-12-08T06:11:31;2.78;;;0.20;;
27333;SDS011;14817;57.104;-2.094;2022-12-08T06:13:59;3.42;;;0.30;;
27333;SDS011;14817;57.104;-2.094;2022-12-08T06:16:26;1.50;;;0.20;;
27333;SDS011;14817;57.104;-2.094;2022-12-08T06:18:53;0.60;;;0.30;;
27333;SDS011;14817;57.104;-2.094;2022-12-08T06:21:21;0.90;;;0.20;;
27333;SDS011;14817;57.104;-2.094;2022-12-08T06:23:49;0.80;;;0.28;;
27333;SDS011;14817;57.104;-2.094;2022-12-08T06:26:17;1.85;;;0.20;;
27333;SDS011;14817;57.104;-2.094;2022-12-08T06:28:44;1.73;;;0.60;;
27333;SDS011;14817;57.104;-2.094;2022-12-08T06:31:13;0.50;;;0.20;;
27333;SDS011;14817;57.104;-2.094;2022-12-08T06:33:45;1.73;;;0.20;;
27333;SDS011;14817;57.104;-2.094;2022-12-08T06:36:13;0.30;;;0.25;;
27333;SDS011;14817;57.104;-2.094;2022-12-08T06:38:41;1.25;;;0.20;;
27333;SDS011;14817;57.104;-2.094;2022-12-08T06:41:09;1.45;;;0.22;;
27333;SDS011;14817;57.104;-2.094;2022-12-08T06:43:37;0.10;;;0.10;;
27333;SDS011;14817;57.104;-2.094;2022-12-08T06:46:04;1.75;;;0.22;;
27333;SDS011;14817;57.104;-2.094;2022-12-08T06:48:33;1.40;;;0.20;;
27333;SDS011;14817;57.104;-2.094;2022-12-08T06:51:07;0.10;;;0.10;;
27333;SDS011;14817;57.104;-2.094;2022-12-08T06:53:35;0.10;;;0.10;;
27333;SDS011;14817;57.104;-2.094;2022-12-08T06:56:02;0.90;;;0.10;;
27333;SDS011;14817;57.104;-2.094;2022-12-08T06:58:30;0.22;;;0.20;;
27333;SDS011;14817;57.104;-2.094;2022-12-08T07:00:57;0.03;;;0.03;;
27333;SDS011;14817;57.104;-2.094;2022-12-08T07:03:30;2.00;;;0.10;;
27333;SDS011;14817;57.104;-2.094;2022-12-08T07:06:00;0.70;;;0.20;;
27333;SDS011;14817;57.104;-2.094;2022-12-08T07:08:30;1.55;;;0.22;;
27333;SDS011;14817;57.104;-2.094;2022-12-08T07:10:58;1.02;;;0.30;;
27333;SDS011;14817;57.104;-2.094;2022-12-08T07:13:25;0.90;;;0.10;;
27333;SDS011;14817;57.104;-2.094;2022-12-08T07:15:52;4.38;;;0.22;;
27333;SDS011;14817;57.104;-2.094;2022-12-08T07:18:19;0.52;;;0.10;;
27333;SDS011;14817;57.104;-2.094;2022-12-08T07:20:46;0.30;;;0.20;;
27333;SDS011;14817;57.104;-2.094;2022-12-08T07:23:12;0.20;;;0.10;;
27333;SDS011;14817;57.104;-2.094;2022-12-08T07:25:40;1.55;;;0.10;;
27333;SDS011;14817;57.104;-2.094;2022-12-08T07:28:07;0.63;;;0.20;;
27333;SDS011;14817;57.104;-2.094;2022-12-08T07:30:35;0.35;;;0.20;;
27333;SDS011;14817;57.104;-2.094;2022-12-08T07:33:02;1.48;;;0.20;;
27333;SDS011;14817;57.104;-2.094;2022-12-08T07:35:31;2.88;;;0.13;;
27333;SDS011;14817;57.104;-2.094;2022-12-08T07:40:52;0.47;;;0.20;;
27333;SDS011;14817;57.104;-2.094;2022-12-08T07:43:19;2.05;;;0.30;;
27333;SDS011;14817;57.104;-2.094;2022-12-08T07:45:47;1.38;;;0.50;;
27333;SDS011;14817;57.104;-2.094;2022-12-08T07:48:15;3.45;;;0.52;;
27333;SDS011;14817;57.104;-2.094;2022-12-08T07:50:42;0.32;;;0.20;;
27333;SDS011;14817;57.104;-2.094;2022-12-08T07:53:10;1.13;;;0.40;;
27333;SDS011;14817;57.104;-2.094;2022-12-08T07:55:40;0.65;;;0.30;;
27333;SDS011;14817;57.104;-2.094;2022-12-08T07:58:09;1.95;;;0.40;;
27333;SDS011;14817;57.104;-2.094;2022-12-08T08:00:36;5.53;;;0.32;;
27333;SDS011;14817;57.104;-2.094;2022-12-08T08:03:03;1.40;;;0.32;;
27333;SDS011;14817;57.104;-2.094;2022-12-08T08:05:31;2.28;;;0.30;;
27333;SDS011;14817;57.104;-2.094;2022-12-08T08:07:58;1.48;;;0.30;;
27333;SDS011;14817;57.104;-2.094;2022-12-08T08:10:25;3.65;;;0.47;;
27333;SDS011;14817;57.104;-2.094;2022-12-08T08:12:52;1.65;;;0.30;;
27333;SDS011;14817;57.104;-2.094;2022-12-08T08:15:18;2.33;;;0.20;;
27333;SDS011;14817;57.104;-2.094;2022-12-08T08:17:48;3.17;;;0.77;;
27333;SDS011;14817;57.104;-2.094;2022-12-08T08:20:20;0.40;;;0.10;;
27333;SDS011;14817;57.104;-2.094;2022-12-08T08:22:47;3.42;;;0.30;;
27333;SDS011;14817;57.104;-2.094;2022-12-08T08:25:16;2.28;;;0.30;;
27333;SDS011;14817;57.104;-2.094;2022-12-08T08:27:45;0.35;;;0.30;;
27333;SDS011;14817;57.104;-2.094;2022-12-08T08:30:12;2.35;;;0.80;;
27333;SDS011;14817;57.104;-2.094;2022-12-08T08:32:46;2.88;;;0.60;;
27333;SDS011;14817;57.104;-2.094;2022-12-08T08:35:15;4.00;;;0.85;;
27333;SDS011;14817;57.104;-2.094;2022-12-08T08:37:43;1.27;;;0.43;;
27333;SDS011;14817;57.104;-2.094;2022-12-08T08:40:16;3.83;;;1.08;;
27333;SDS011;14817;57.104;-2.094;2022-12-08T08:42:43;5.97;;;0.70;;
27333;SDS011;14817;57.104;-2.094;2022-12-08T08:45:10;4.00;;;0.60;;
27333;SDS011;14817;57.104;-2.094;2022-12-08T08:47:37;2.70;;;0.52;;
27333;SDS011;14817;57.104;-2.094;2022-12-08T08:50:04;1.92;;;0.65;;
27333;SDS011;14817;57.104;-2.094;2022-12-08T08:52:32;6.43;;;0.52;;
27333;SDS011;14817;57.104;-2.094;2022-12-08T08:54:59;2.33;;;0.70;;
27333;SDS011;14817;57.104;-2.094;2022-12-08T08:57:26;5.13;;;1.35;;
27333;SDS011;14817;57.104;-2.094;2022-12-08T08:59:53;3.45;;;0.50;;
27333;SDS011;14817;57.104;-2.094;2022-12-08T09:02:20;3.83;;;0.55;;
27333;SDS011;14817;57.104;-2.094;2022-12-08T09:04:47;5.68;;;0.60;;
27333;SDS011;14817;57.104;-2.094;2022-12-08T09:07:14;4.65;;;0.80;;
27333;SDS011;14817;57.104;-2.094;2022-12-08T09:09:41;9.85;;;0.95;;
27333;SDS011;14817;57.104;-2.094;2022-12-08T09:12:09;8.85;;;0.95;;
27333;SDS011;14817;57.104;-2.094;2022-12-08T09:14:41;10.93;;;1.35;;
27333;SDS011;14817;57.104;-2.094;2022-12-08T09:17:09;5.70;;;0.80;;
27333;SDS011;14817;57.104;-2.094;2022-12-08T09:19:36;9.30;;;1.50;;
27333;SDS011;14817;57.104;-2.094;2022-12-08T09:22:03;2.63;;;0.52;;
27333;SDS011;14817;57.104;-2.094;2022-12-08T09:24:31;4.50;;;1.10;;
27333;SDS011;14817;57.104;-2.094;2022-12-08T09:26:58;4.32;;;0.80;;
27333;SDS011;14817;57.104;-2.094;2022-12-08T09:29:25;4.00;;;0.95;;
27333;SDS011;14817;57.104;-2.094;2022-12-08T09:32:02;4.60;;;0.98;;
27333;SDS011;14817;57.104;-2.094;2022-12-08T09:34:29;3.47;;;0.50;;
27333;SDS011;14817;57.104;-2.094;2022-12-08T09:36:57;9.15;;;1.55;;
27333;SDS011;14817;57.104;-2.094;2022-12-08T09:39:24;5.47;;;0.73;;
27333;SDS011;14817;57.104;-2.094;2022-12-08T09:42:01;4.07;;;0.68;;
27333;SDS011;14817;57.104;-2.094;2022-12-08T09:47:27;4.88;;;0.57;;
27333;SDS011;14817;57.104;-2.094;2022-12-08T09:52:40;2.88;;;0.52;;
27333;SDS011;14817;57.104;-2.094;2022-12-08T09:55:15;6.18;;;0.60;;
27333;SDS011;14817;57.104;-2.094;2022-12-08T09:57:47;7.05;;;0.82;;
27333;SDS011;14817;57.104;-2.094;2022-12-08T10:00:22;8.65;;;1.20;;
27333;SDS011;14817;57.104;-2.094;2022-12-08T10:02:48;5.43;;;1.15;;
27333;SDS011;14817;57.104;-2.094;2022-12-08T10:05:15;8.65;;;0.88;;
27333;SDS011;14817;57.104;-2.094;2022-12-08T10:07:54;4.65;;;0.98;;
27333;SDS011;14817;57.104;-2.094;2022-12-08T10:10:37;3.50;;;0.40;;
27333;SDS011;14817;57.104;-2.094;2022-12-08T10:13:28;4.85;;;0.73;;
27333;SDS011;14817;57.104;-2.094;2022-12-08T10:19:09;2.10;;;0.57;;
27333;SDS011;14817;57.104;-2.094;2022-12-08T10:21:37;1.42;;;0.30;;
27333;SDS011;14817;57.104;-2.094;2022-12-08T10:24:10;2.05;;;0.45;;
27333;SDS011;14817;57.104;-2.094;2022-12-08T10:26:44;3.95;;;0.68;;
27333;SDS011;14817;57.104;-2.094;2022-12-08T10:29:12;0.98;;;0.57;;
27333;SDS011;14817;57.104;-2.094;2022-12-08T10:31:41;3.17;;;0.55;;
27333;SDS011;14817;57.104;-2.094;2022-12-08T10:34:18;2.35;;;0.50;;
27333;SDS011;14817;57.104;-2.094;2022-12-08T10:36:53;6.00;;;0.73;;
27333;SDS011;14817;57.104;-2.094;2022-12-08T10:42:14;6.97;;;1.10;;
27333;SDS011;14817;57.104;-2.094;2022-12-08T10:47:34;2.85;;;0.73;;
27333;SDS011;14817;57.104;-2.094;2022-12-08T10:52:52;2.50;;;0.75;;
27333;SDS011;14817;57.104;-2.094;2022-12-08T10:55:24;4.28;;;0.88;;
27333;SDS011;14817;57.104;-2.094;2022-12-08T10:57:51;5.07;;;1.05;;
27333;SDS011;14817;57.104;-2.094;2022-12-08T11:00:19;8.25;;;1.40;;
27333;SDS011;14817;57.104;-2.094;2022-12-08T11:02:52;9.15;;;1.35;;
27333;SDS011;14817;57.104;-2.094;2022-12-08T11:05:34;4.95;;;1.20;;
27333;SDS011;14817;57.104;-2.094;2022-12-08T11:08:02;5.72;;;1.20;;
27333;SDS011;14817;57.104;-2.094;2022-12-08T11:10:32;6.28;;;1.08;;
27333;SDS011;14817;57.104;-2.094;2022-12-08T11:13:02;4.88;;;0.60;;
27333;SDS011;14817;57.104;-2.094;2022-12-08T11:15:36;10.85;;;1.38;;
27333;SDS011;14817;57.104;-2.094;2022-12-08T11:18:23;6.88;;;0.90;;
27333;SDS011;14817;57.104;-2.094;2022-12-08T11:21:06;7.00;;;1.30;;
27333;SDS011;14817;57.104;-2.094;2022-12-08T11:23:40;13.77;;;2.45;;
27333;SDS011;14817;57.104;-2.094;2022-12-08T11:26:26;4.97;;;1.00;;
27333;SDS011;14817;57.104;-2.094;2022-12-08T11:28:56;4.15;;;0.70;;
27333;SDS011;14817;57.104;-2.094;2022-12-08T11:31:26;4.10;;;1.13;;
27333;SDS011;14817;57.104;-2.094;2022-12-08T11:33:56;4.22;;;0.90;;
27333;SDS011;14817;57.104;-2.094;2022-12-08T11:36:27;8.98;;;1.17;;
27333;SDS011;14817;57.104;-2.094;2022-12-08T11:38:59;6.97;;;1.38;;
27333;SDS011;14817;57.104;-2.094;2022-12-08T11:41:29;9.55;;;1.17;;
27333;SDS011;14817;57.104;-2.094;2022-12-08T11:47:14;4.05;;;0.93;;
27333;SDS011;14817;57.104;-2.094;2022-12-08T11:49:47;5.72;;;1.15;;
27333;SDS011;14817;57.104;-2.094;2022-12-08T11:52:28;9.65;;;1.20;;
27333;SDS011;14817;57.104;-2.094;2022-12-08T11:55:23;5.18;;;1.15;;
27333;SDS011;14817;57.104;-2.094;2022-12-08T11:58:22;5.80;;;1.05;;
27333;SDS011;14817;57.104;-2.094;2022-12-08T12:00:54;2.85;;;0.70;;
27333;SDS011;14817;57.104;-2.094;2022-12-08T12:05:59;6.18;;;1.27;;
27333;SDS011;14817;57.104;-2.094;2022-12-08T12:09:09;6.53;;;1.23;;
27333;SDS011;14817;57.104;-2.094;2022-12-08T12:26:04;11.05;;;1.40;;
27333;SDS011;14817;57.104;-2.094;2022-12-08T12:28:40;9.20;;;1.35;;
27333;SDS011;14817;57.104;-2.094;2022-12-08T12:31:15;5.95;;;1.52;;
27333;SDS011;14817;57.104;-2.094;2022-12-08T12:33:47;7.45;;;1.40;;
27333;SDS011;14817;57.104;-2.094;2022-12-08T12:36:15;8.57;;;1.50;;
27333;SDS011;14817;57.104;-2.094;2022-12-08T12:38:48;11.93;;;1.83;;
27333;SDS011;14817;57.104;-2.094;2022-12-08T12:41:48;11.85;;;1.65;;
27333;SDS011;14817;57.104;-2.094;2022-12-08T12:44:22;10.05;;;1.38;;
27333;SDS011;14817;57.104;-2.094;2022-12-08T12:54:41;8.45;;;1.58;;
27333;SDS011;14817;57.104;-2.094;2022-12-08T12:57:38;11.52;;;1.88;;
27333;SDS011;14817;57.104;-2.094;2022-12-08T13:00:23;12.05;;;1.98;;
27333;SDS011;14817;57.104;-2.094;2022-12-08T13:02:53;12.15;;;2.10;;
27333;SDS011;14817;57.104;-2.094;2022-12-08T13:05:24;16.20;;;1.95;;
27333;SDS011;14817;57.104;-2.094;2022-12-08T13:13:06;12.60;;;1.33;;
27333;SDS011;14817;57.104;-2.094;2022-12-08T13:15:52;8.38;;;1.45;;
27333;SDS011;14817;57.104;-2.094;2022-12-08T13:18:24;12.13;;;2.00;;
27333;SDS011;14817;57.104;-2.094;2022-12-08T13:21:04;10.52;;;2.42;;
27333;SDS011;14817;57.104;-2.094;2022-12-08T13:23:42;20.00;;;2.38;;
27333;SDS011;14817;57.104;-2.094;2022-12-08T13:26:17;7.00;;;1.98;;
27333;SDS011;14817;57.104;-2.094;2022-12-08T13:31:43;10.15;;;1.92;;
27333;SDS011;14817;57.104;-2.094;2022-12-08T13:34:18;8.85;;;1.75;;
27333;SDS011;14817;57.104;-2.094;2022-12-08T13:53:00;7.10;;;1.50;;
27333;SDS011;14817;57.104;-2.094;2022-12-08T13:55:52;9.10;;;1.83;;
27333;SDS011;14817;57.104;-2.094;2022-12-08T14:06:37;17.80;;;2.08;;
27333;SDS011;14817;57.104;-2.094;2022-12-08T14:09:10;12.27;;;1.90;;
27333;SDS011;14817;57.104;-2.094;2022-12-08T14:11:46;12.63;;;2.67;;
27333;SDS011;14817;57.104;-2.094;2022-12-08T14:14:28;10.45;;;2.55;;
27333;SDS011;14817;57.104;-2.094;2022-12-08T14:17:21;19.45;;;2.70;;
27333;SDS011;14817;57.104;-2.094;2022-12-08T14:19:52;15.80;;;1.85;;
27333;SDS011;14817;57.104;-2.094;2022-12-08T14:22:34;20.08;;;2.30;;
27333;SDS011;14817;57.104;-2.094;2022-12-08T14:25:03;14.40;;;2.40;;
27333;SDS011;14817;57.104;-2.094;2022-12-08T14:27:34;17.25;;;2.25;;
27333;SDS011;14817;57.104;-2.094;2022-12-08T14:30:04;17.77;;;2.53;;
27333;SDS011;14817;57.104;-2.094;2022-12-08T14:37:35;14.00;;;2.35;;
27333;SDS011;14817;57.104;-2.094;2022-12-08T14:42:51;22.73;;;2.75;;
27333;SDS011;14817;57.104;-2.094;2022-12-08T14:45:30;13.97;;;3.03;;
27333;SDS011;14817;57.104;-2.094;2022-12-08T14:51:14;22.52;;;2.88;;
27333;SDS011;14817;57.104;-2.094;2022-12-08T15:01:31;12.73;;;2.35;;
27333;SDS011;14817;57.104;-2.094;2022-12-08T15:04:45;14.40;;;2.58;;
27333;SDS011;14817;57.104;-2.094;2022-12-08T15:06:56;11.52;;;2.78;;
27333;SDS011;14817;57.104;-2.094;2022-12-08T15:09:31;11.98;;;2.63;;
27333;SDS011;14817;57.104;-2.094;2022-12-08T15:12:05;20.65;;;4.10;;
27333;SDS011;14817;57.104;-2.094;2022-12-08T15:22:26;13.30;;;2.33;;
27333;SDS011;14817;57.104;-2.094;2022-12-08T15:24:55;9.23;;;1.88;;
27333;SDS011;14817;57.104;-2.094;2022-12-08T15:27:23;17.70;;;3.03;;
27333;SDS011;14817;57.104;-2.094;2022-12-08T15:29:51;20.23;;;3.22;;
27333;SDS011;14817;57.104;-2.094;2022-12-08T15:32:19;11.05;;;2.05;;
27333;SDS011;14817;57.104;-2.094;2022-12-08T15:34:48;18.63;;;2.47;;
27333;SDS011;14817;57.104;-2.094;2022-12-08T15:37:19;15.68;;;2.38;;
27333;SDS011;14817;57.104;-2.094;2022-12-08T15:39:50;11.30;;;2.25;;
27333;SDS011;14817;57.104;-2.094;2022-12-08T15:42:17;15.52;;;2.75;;
27333;SDS011;14817;57.104;-2.094;2022-12-08T15:44:44;13.43;;;1.90;;
27333;SDS011;14817;57.104;-2.094;2022-12-08T15:47:15;17.05;;;2.92;;
27333;SDS011;14817;57.104;-2.094;2022-12-08T15:49:46;12.20;;;2.53;;
27333;SDS011;14817;57.104;-2.094;2022-12-08T15:52:19;13.90;;;2.35;;
27333;SDS011;14817;57.104;-2.094;2022-12-08T15:54:47;18.33;;;2.92;;
27333;SDS011;14817;57.104;-2.094;2022-12-08T15:57:18;10.77;;;2.55;;
27333;SDS011;14817;57.104;-2.094;2022-12-08T16:03:08;8.13;;;1.88;;
27333;SDS011;14817;57.104;-2.094;2022-12-08T16:06:09;16.83;;;3.45;;
27333;SDS011;14817;57.104;-2.094;2022-12-08T16:09:02;12.75;;;2.75;;
27333;SDS011;14817;57.104;-2.094;2022-12-08T16:11:37;16.08;;;2.65;;
27333;SDS011;14817;57.104;-2.094;2022-12-08T16:14:33;12.57;;;1.88;;
27333;SDS011;14817;57.104;-2.094;2022-12-08T16:17:20;10.02;;;2.88;;
27333;SDS011;14817;57.104;-2.094;2022-12-08T16:19:47;8.65;;;2.45;;
27333;SDS011;14817;57.104;-2.094;2022-12-08T16:22:16;10.98;;;2.08;;
27333;SDS011;14817;57.104;-2.094;2022-12-08T16:25:04;12.82;;;2.30;;
27333;SDS011;14817;57.104;-2.094;2022-12-08T16:27:44;7.65;;;1.83;;
27333;SDS011;14817;57.104;-2.094;2022-12-08T16:30:31;15.05;;;2.47;;
27333;SDS011;14817;57.104;-2.094;2022-12-08T16:32:58;12.27;;;2.42;;
27333;SDS011;14817;57.104;-2.094;2022-12-08T16:35:25;14.15;;;2.60;;
27333;SDS011;14817;57.104;-2.094;2022-12-08T16:37:52;8.65;;;3.38;;
27333;SDS011;14817;57.104;-2.094;2022-12-08T16:40:19;11.57;;;2.63;;
27333;SDS011;14817;57.104;-2.094;2022-12-08T16:42:46;10.50;;;2.17;;
27333;SDS011;14817;57.104;-2.094;2022-12-08T16:47:51;9.85;;;1.85;;
27333;SDS011;14817;57.104;-2.094;2022-12-08T16:50:23;11.50;;;1.77;;
27333;SDS011;14817;57.104;-2.094;2022-12-08T16:52:56;8.80;;;1.88;;
27333;SDS011;14817;57.104;-2.094;2022-12-08T16:55:23;7.43;;;1.60;;
27333;SDS011;14817;57.104;-2.094;2022-12-08T16:57:50;12.65;;;3.22;;
27333;SDS011;14817;57.104;-2.094;2022-12-08T17:00:19;11.68;;;2.00;;
27333;SDS011;14817;57.104;-2.094;2022-12-08T17:02:48;20.83;;;3.67;;
27333;SDS011;14817;57.104;-2.094;2022-12-08T17:05:16;11.25;;;2.45;;
27333;SDS011;14817;57.104;-2.094;2022-12-08T17:07:46;15.10;;;2.17;;
27333;SDS011;14817;57.104;-2.094;2022-12-08T17:10:15;8.63;;;2.75;;
27333;SDS011;14817;57.104;-2.094;2022-12-08T17:12:44;8.20;;;1.90;;
27333;SDS011;14817;57.104;-2.094;2022-12-08T17:15:13;14.13;;;2.10;;
27333;SDS011;14817;57.104;-2.094;2022-12-08T17:17:41;8.33;;;2.03;;
27333;SDS011;14817;57.104;-2.094;2022-12-08T17:20:11;11.50;;;2.78;;
27333;SDS011;14817;57.104;-2.094;2022-12-08T17:22:39;12.47;;;2.87;;
27333;SDS011;14817;57.104;-2.094;2022-12-08T17:25:06;19.00;;;2.67;;
27333;SDS011;14817;57.104;-2.094;2022-12-08T17:27:33;9.98;;;2.53;;
27333;SDS011;14817;57.104;-2.094;2022-12-08T17:30:00;9.93;;;2.85;;
27333;SDS011;14817;57.104;-2.094;2022-12-08T17:32:27;15.30;;;2.63;;
27333;SDS011;14817;57.104;-2.094;2022-12-08T17:34:54;11.23;;;2.10;;
27333;SDS011;14817;57.104;-2.094;2022-12-08T17:37:21;17.38;;;2.53;;
27333;SDS011;14817;57.104;-2.094;2022-12-08T17:39:48;14.90;;;2.55;;
27333;SDS011;14817;57.104;-2.094;2022-12-08T17:42:15;13.13;;;2.30;;
27333;SDS011;14817;57.104;-2.094;2022-12-08T17:44:42;11.43;;;2.20;;